createdAt,value
2023-02-12T00:00:37.000Z,6.09
2023-02-12T00:01:37.000Z,6.06
2023-02-12T00:02:37.000Z,6.07
2023-02-12T00:03:37.000Z,6.06
2023-02-12T00:04:37.000Z,6.03
2023-02-12T00:05:37.000Z,6.06
2023-02-12T00:06:37.000Z,6.06
2023-02-12T00:07:37.000Z,6.10
2023-02-12T00:08:37.000Z,6.07
2023-02-12T00:09:37.000Z,6.04
2023-02-12T00:10:37.000Z,6.06
2023-02-12T00:11:37.000Z,6.06
2023-02-12T00:12:37.000Z,6.04
2023-02-12T00:13:37.000Z,6.06
2023-02-12T00:14:37.000Z,6.04
2023-02-12T00:15:37.000Z,6.07
2023-02-12T00:16:37.000Z,6.01
2023-02-12T00:17:37.000Z,6.03
2023-02-12T00:18:37.000Z,6.04
2023-02-12T00:19:37.000Z,6.07
2023-02-12T00:20:37.000Z,6.06
2023-02-12T00:21:37.000Z,6.03
2023-02-12T00:22:37.000Z,6.06
2023-02-12T00:23:37.000Z,6.04
2023-02-12T00:24:37.000Z,6.06
2023-02-12T00:25:37.000Z,6.09
2023-02-12T00:26:37.000Z,6.03
2023-02-12T00:27:37.000Z,6.04
2023-02-12T00:28:37.000Z,6.03
2023-02-12T00:29:37.000Z,6.04
2023-02-12T00:30:37.000Z,6.04
2023-02-12T00:31:37.000Z,6.06
2023-02-12T00:32:37.000Z,6.06
2023-02-12T00:33:37.000Z,6.01
2023-02-12T00:34:37.000Z,6.03
2023-02-12T00:35:37.000Z,6.06
2023-02-12T00:36:37.000Z,6.06
2023-02-12T00:37:37.000Z,6.06
2023-02-12T00:38:37.000Z,6.04
2023-02-12T00:39:37.000Z,6.06
2023-02-12T00:40:37.000Z,6.09
2023-02-12T00:41:37.000Z,6.03
2023-02-12T00:42:37.000Z,6.04
2023-02-12T00:43:37.000Z,6.06
2023-02-12T00:44:37.000Z,6.00
2023-02-12T00:45:37.000Z,6.06
2023-02-12T00:46:37.000Z,6.03
2023-02-12T00:47:37.000Z,6.07
2023-02-12T00:48:37.000Z,6.03
2023-02-12T00:49:37.000Z,6.06
2023-02-12T00:50:37.000Z,6.11
2023-02-12T00:51:37.000Z,6.06
2023-02-12T00:52:37.000Z,6.10
2023-02-12T00:53:37.000Z,6.06
2023-02-12T00:54:37.000Z,6.09
2023-02-12T00:55:37.000Z,6.06
2023-02-12T00:56:37.000Z,6.09
2023-02-12T00:57:37.000Z,6.10
2023-02-12T00:58:37.000Z,6.10
2023-02-12T00:59:37.000Z,6.07
2023-02-12T01:00:37.000Z,6.10
2023-02-12T01:01:37.000Z,6.09
2023-02-12T01:02:38.000Z,6.11
2023-02-12T01:03:38.000Z,6.06
2023-02-12T01:04:38.000Z,6.09
2023-02-12T01:05:38.000Z,6.09
2023-02-12T01:06:38.000Z,6.10
2023-02-12T01:07:38.000Z,6.10
2023-02-12T01:08:38.000Z,6.10
2023-02-12T01:09:38.000Z,6.07
2023-02-12T01:10:38.000Z,6.10
2023-02-12T01:11:38.000Z,6.09
2023-02-12T01:12:38.000Z,6.06
2023-02-12T01:13:38.000Z,6.10
2023-02-12T01:14:38.000Z,6.16
2023-02-12T01:15:38.000Z,6.14
2023-02-12T01:16:38.000Z,6.16
2023-02-12T01:17:38.000Z,6.16
2023-02-12T01:18:38.000Z,6.16
2023-02-12T01:19:38.000Z,6.14
2023-02-12T01:20:38.000Z,6.14
2023-02-12T01:21:38.000Z,6.10
2023-02-12T01:22:38.000Z,6.16
2023-02-12T01:23:38.000Z,6.14
2023-02-12T01:24:38.000Z,6.19
2023-02-12T01:25:38.000Z,6.18
2023-02-12T01:26:38.000Z,6.18
2023-02-12T01:27:38.000Z,6.19
2023-02-12T01:28:38.000Z,6.19
2023-02-12T01:29:38.000Z,6.21
2023-02-12T01:30:38.000Z,6.19
2023-02-12T01:31:38.000Z,6.18
2023-02-12T01:32:38.000Z,6.16
2023-02-12T01:33:38.000Z,6.18
2023-02-12T01:34:38.000Z,6.13
2023-02-12T01:35:38.000Z,6.14
2023-02-12T01:36:38.000Z,6.18
2023-02-12T01:37:38.000Z,6.14
2023-02-12T01:38:38.000Z,6.14
2023-02-12T01:39:38.000Z,6.16
2023-02-12T01:40:38.000Z,6.18
2023-02-12T01:41:38.000Z,6.16
2023-02-12T01:42:38.000Z,6.18
2023-02-12T01:43:38.000Z,6.19
2023-02-12T01:44:38.000Z,6.16
2023-02-12T01:45:38.000Z,6.18
2023-02-12T01:46:38.000Z,6.18
2023-02-12T01:47:38.000Z,6.19
2023-02-12T01:48:38.000Z,6.19
2023-02-12T01:49:38.000Z,6.19
2023-02-12T01:50:38.000Z,6.19
2023-02-12T01:51:38.000Z,6.18
2023-02-12T01:52:38.000Z,6.16
2023-02-12T01:53:38.000Z,6.18
2023-02-12T01:54:38.000Z,6.19
2023-02-12T01:55:38.000Z,6.21
2023-02-12T01:56:38.000Z,6.18
2023-02-12T01:57:38.000Z,6.18
2023-02-12T01:58:38.000Z,6.25
2023-02-12T01:59:39.000Z,6.19
2023-02-12T02:00:39.000Z,6.22
2023-02-12T02:01:39.000Z,6.26
2023-02-12T02:02:39.000Z,6.26
2023-02-12T02:03:39.000Z,6.25
2023-02-12T02:04:39.000Z,6.26
2023-02-12T02:05:39.000Z,6.28
2023-02-12T02:06:39.000Z,6.29
2023-02-12T02:07:39.000Z,6.28
2023-02-12T02:08:39.000Z,6.30
2023-02-12T02:09:39.000Z,6.26
2023-02-12T02:10:39.000Z,6.29
2023-02-12T02:11:39.000Z,6.28
2023-02-12T02:12:39.000Z,6.28
2023-02-12T02:13:39.000Z,6.29
2023-02-12T02:14:39.000Z,6.26
2023-02-12T02:15:39.000Z,6.30
2023-02-12T02:16:39.000Z,6.30
2023-02-12T02:17:39.000Z,6.32
2023-02-12T02:18:39.000Z,6.29
2023-02-12T02:19:39.000Z,6.28
2023-02-12T02:20:39.000Z,6.32
2023-02-12T02:21:39.000Z,6.32
2023-02-12T02:22:39.000Z,6.32
2023-02-12T02:23:39.000Z,6.33
2023-02-12T02:24:39.000Z,6.32
2023-02-12T02:25:39.000Z,6.33
2023-02-12T02:26:39.000Z,6.36
2023-02-12T02:27:39.000Z,6.33
2023-02-12T02:28:39.000Z,6.35
2023-02-12T02:29:39.000Z,6.38
2023-02-12T02:30:39.000Z,6.40
2023-02-12T02:31:39.000Z,6.35
2023-02-12T02:31:39.000Z,6.35
2023-02-12T02:32:39.000Z,6.36
2023-02-12T02:32:39.000Z,6.36
2023-02-12T02:33:39.000Z,6.33
2023-02-12T02:33:39.000Z,6.33
2023-02-12T02:34:39.000Z,6.36
2023-02-12T02:34:39.000Z,6.36
2023-02-12T02:35:39.000Z,6.35
2023-02-12T02:35:39.000Z,6.35
2023-02-12T02:36:39.000Z,6.35
2023-02-12T02:37:39.000Z,6.30
2023-02-12T02:38:39.000Z,6.35
2023-02-12T02:39:39.000Z,6.33
2023-02-12T02:40:39.000Z,6.33
2023-02-12T02:41:39.000Z,6.35
2023-02-12T02:42:39.000Z,6.33
2023-02-12T02:43:39.000Z,6.33
2023-02-12T02:44:39.000Z,6.33
2023-02-12T02:45:39.000Z,6.35
2023-02-12T02:46:39.000Z,6.33
2023-02-12T02:47:39.000Z,6.35
2023-02-12T02:48:39.000Z,6.35
2023-02-12T02:49:39.000Z,6.32
2023-02-12T02:50:39.000Z,6.30
2023-02-12T02:51:39.000Z,6.30
2023-02-12T02:52:39.000Z,6.29
2023-02-12T02:53:39.000Z,6.29
2023-02-12T02:54:39.000Z,6.29
2023-02-12T02:55:39.000Z,6.32
2023-02-12T02:56:39.000Z,6.30
2023-02-12T02:57:39.000Z,6.30
2023-02-12T02:58:39.000Z,6.29
2023-02-12T02:59:39.000Z,6.28
2023-02-12T03:00:39.000Z,6.33
2023-02-12T03:01:39.000Z,6.30
2023-02-12T03:02:39.000Z,6.29
2023-02-12T03:03:39.000Z,6.35
2023-02-12T03:04:39.000Z,6.28
2023-02-12T03:05:39.000Z,6.30
2023-02-12T03:06:39.000Z,6.29
2023-02-12T03:07:39.000Z,6.32
2023-02-12T03:08:39.000Z,6.28
2023-02-12T03:09:39.000Z,6.29
2023-02-12T03:10:39.000Z,6.30
2023-02-12T03:11:39.000Z,6.30
2023-02-12T03:12:39.000Z,6.32
2023-02-12T03:13:39.000Z,6.29
2023-02-12T03:14:39.000Z,6.30
2023-02-12T03:15:39.000Z,6.25
2023-02-12T03:16:39.000Z,6.33
2023-02-12T03:17:39.000Z,6.30
2023-02-12T03:18:40.000Z,6.28
2023-02-12T03:19:40.000Z,6.29
2023-02-12T03:20:40.000Z,6.28
2023-02-12T03:21:40.000Z,6.29
2023-02-12T03:22:40.000Z,6.29
2023-02-12T03:23:40.000Z,6.35
2023-02-12T03:24:40.000Z,6.29
2023-02-12T03:25:40.000Z,6.30
2023-02-12T03:26:40.000Z,6.28
2023-02-12T03:27:40.000Z,6.28
2023-02-12T03:28:40.000Z,6.28
2023-02-12T03:29:40.000Z,6.28
2023-02-12T03:30:40.000Z,6.30
2023-02-12T03:31:40.000Z,6.28
2023-02-12T03:32:40.000Z,6.26
2023-02-12T03:33:40.000Z,6.28
2023-02-12T03:34:40.000Z,6.26
2023-02-12T03:35:40.000Z,6.29
2023-02-12T03:36:40.000Z,6.26
2023-02-12T03:37:40.000Z,6.29
2023-02-12T03:38:40.000Z,6.28
2023-02-12T03:39:40.000Z,6.25
2023-02-12T03:40:40.000Z,6.32
2023-02-12T03:41:40.000Z,6.30
2023-02-12T03:42:40.000Z,6.29
2023-02-12T03:43:40.000Z,6.30
2023-02-12T03:44:40.000Z,6.29
2023-02-12T03:45:40.000Z,6.32
2023-02-12T03:46:40.000Z,6.30
2023-02-12T03:47:40.000Z,6.30
2023-02-12T03:48:40.000Z,6.32
2023-02-12T03:49:40.000Z,6.32
2023-02-12T03:50:40.000Z,6.32
2023-02-12T03:51:40.000Z,6.33
2023-02-12T03:52:40.000Z,6.29
2023-02-12T03:53:40.000Z,6.35
2023-02-12T03:54:40.000Z,6.33
2023-02-12T03:55:40.000Z,6.33
2023-02-12T03:56:40.000Z,6.35
2023-02-12T03:57:40.000Z,6.30
2023-02-12T03:58:40.000Z,6.30
2023-02-12T03:59:40.000Z,6.30
2023-02-12T04:00:40.000Z,6.30
2023-02-12T04:01:40.000Z,6.26
2023-02-12T04:02:40.000Z,6.28
2023-02-12T04:03:40.000Z,6.26
2023-02-12T04:04:40.000Z,6.29
2023-02-12T04:05:40.000Z,6.28
2023-02-12T04:06:40.000Z,6.30
2023-02-12T04:07:40.000Z,6.29
2023-02-12T04:08:40.000Z,6.28
2023-02-12T04:09:40.000Z,6.30
2023-02-12T04:10:40.000Z,6.28
2023-02-12T04:11:40.000Z,6.26
2023-02-12T04:12:40.000Z,6.29
2023-02-12T04:13:40.000Z,6.29
2023-02-12T04:14:40.000Z,6.29
2023-02-12T04:15:40.000Z,6.29
2023-02-12T04:16:40.000Z,6.26
2023-02-12T04:17:40.000Z,6.30
2023-02-12T04:18:40.000Z,6.29
2023-02-12T04:19:40.000Z,6.35
2023-02-12T04:20:40.000Z,6.29
2023-02-12T04:21:40.000Z,6.32
2023-02-12T04:22:40.000Z,6.29
2023-02-12T04:23:40.000Z,6.29
2023-02-12T04:24:40.000Z,6.29
2023-02-12T04:25:40.000Z,6.29
2023-02-12T04:26:40.000Z,6.30
2023-02-12T04:27:40.000Z,6.35
2023-02-12T04:28:40.000Z,6.36
2023-02-12T04:29:40.000Z,6.36
2023-02-12T04:30:40.000Z,6.33
2023-02-12T04:31:40.000Z,6.30
2023-02-12T04:32:40.000Z,6.38
2023-02-12T04:33:40.000Z,6.33
2023-02-12T04:34:40.000Z,6.33
2023-02-12T04:35:40.000Z,6.36
2023-02-12T04:36:40.000Z,6.32
2023-02-12T04:37:40.000Z,6.30
2023-02-12T04:38:40.000Z,6.36
2023-02-12T04:39:40.000Z,6.30
2023-02-12T04:40:40.000Z,6.32
2023-02-12T04:41:41.000Z,6.32
2023-02-12T04:42:41.000Z,6.32
2023-02-12T04:43:41.000Z,6.33
2023-02-12T04:44:41.000Z,6.32
2023-02-12T04:45:41.000Z,6.32
2023-02-12T04:46:41.000Z,6.32
2023-02-12T04:47:41.000Z,6.29
2023-02-12T04:48:41.000Z,6.33
2023-02-12T04:49:41.000Z,6.29
2023-02-12T04:50:41.000Z,6.33
2023-02-12T04:51:41.000Z,6.33
2023-02-12T04:52:41.000Z,6.36
2023-02-12T04:53:41.000Z,6.30
2023-02-12T04:54:41.000Z,6.30
2023-02-12T04:55:41.000Z,6.32
2023-02-12T04:56:41.000Z,6.32
2023-02-12T04:57:41.000Z,6.33
2023-02-12T04:58:41.000Z,6.30
2023-02-12T04:59:41.000Z,6.32
2023-02-12T05:00:41.000Z,6.33
2023-02-12T05:01:41.000Z,6.32
2023-02-12T05:02:41.000Z,6.35
2023-02-12T05:03:41.000Z,6.35
2023-02-12T05:04:41.000Z,6.32
2023-02-12T05:05:41.000Z,6.32
2023-02-12T05:06:41.000Z,6.33
2023-02-12T05:07:41.000Z,6.32
2023-02-12T05:08:41.000Z,6.32
2023-02-12T05:09:41.000Z,6.30
2023-02-12T05:10:41.000Z,6.33
2023-02-12T05:11:41.000Z,6.29
2023-02-12T05:12:41.000Z,6.35
2023-02-12T05:13:41.000Z,6.29
2023-02-12T05:14:41.000Z,6.32
2023-02-12T05:15:41.000Z,6.36
2023-02-12T05:16:41.000Z,6.33
2023-02-12T05:17:41.000Z,6.30
2023-02-12T05:18:41.000Z,6.33
2023-02-12T05:19:41.000Z,6.32
2023-02-12T05:20:41.000Z,6.33
2023-02-12T05:21:41.000Z,6.32
2023-02-12T05:22:41.000Z,6.32
2023-02-12T05:23:41.000Z,6.32
2023-02-12T05:24:41.000Z,6.30
2023-02-12T05:25:41.000Z,6.30
2023-02-12T05:26:41.000Z,6.30
2023-02-12T05:27:41.000Z,6.30
2023-02-12T05:28:41.000Z,6.35
2023-02-12T05:29:41.000Z,6.30
2023-02-12T05:30:41.000Z,6.30
2023-02-12T05:31:41.000Z,6.30
2023-02-12T05:32:41.000Z,6.33
2023-02-12T05:33:41.000Z,6.30
2023-02-12T05:34:41.000Z,6.38
2023-02-12T05:35:41.000Z,6.35
2023-02-12T05:36:41.000Z,6.32
2023-02-12T05:37:41.000Z,6.32
2023-02-12T05:38:41.000Z,6.33
2023-02-12T05:39:41.000Z,6.35
2023-02-12T05:40:41.000Z,6.36
2023-02-12T05:41:41.000Z,6.33
2023-02-12T05:42:41.000Z,6.35
2023-02-12T05:43:41.000Z,6.30
2023-02-12T05:44:41.000Z,6.36
2023-02-12T05:45:41.000Z,6.32
2023-02-12T05:46:41.000Z,6.35
2023-02-12T05:47:41.000Z,6.32
2023-02-12T05:48:41.000Z,6.33
2023-02-12T05:49:41.000Z,6.36
2023-02-12T05:50:41.000Z,6.32
2023-02-12T05:51:41.000Z,6.35
2023-02-12T05:52:41.000Z,6.36
2023-02-12T05:53:41.000Z,6.32
2023-02-12T05:54:41.000Z,6.33
2023-02-12T05:55:41.000Z,6.30
2023-02-12T05:56:41.000Z,6.33
2023-02-12T05:57:41.000Z,6.33
2023-02-12T05:58:41.000Z,6.35
2023-02-12T05:59:41.000Z,6.35
2023-02-12T06:00:41.000Z,6.36
2023-02-12T06:01:41.000Z,6.40
2023-02-12T06:02:41.000Z,6.35
2023-02-12T06:03:41.000Z,6.41
2023-02-12T06:04:41.000Z,6.43
2023-02-12T06:05:41.000Z,6.38
2023-02-12T06:06:41.000Z,6.38
2023-02-12T06:07:41.000Z,6.38
2023-02-12T06:08:41.000Z,6.41
2023-02-12T06:09:41.000Z,6.38
2023-02-12T06:10:41.000Z,6.38
2023-02-12T06:11:41.000Z,6.40
2023-02-12T06:12:41.000Z,6.40
2023-02-12T06:13:41.000Z,6.38
2023-02-12T06:14:41.000Z,6.44
2023-02-12T06:15:41.000Z,6.43
2023-02-12T06:16:41.000Z,6.41
2023-02-12T06:17:41.000Z,6.43
2023-02-12T06:18:41.000Z,6.40
2023-02-12T06:19:41.000Z,6.44
2023-02-12T06:20:41.000Z,6.46
2023-02-12T06:21:41.000Z,6.44
2023-02-12T06:22:41.000Z,6.46
2023-02-12T06:23:41.000Z,6.41
2023-02-12T06:24:41.000Z,6.43
2023-02-12T06:25:41.000Z,6.41
2023-02-12T06:26:41.000Z,6.48
2023-02-12T06:27:41.000Z,6.44
2023-02-12T06:28:41.000Z,6.41
2023-02-12T06:29:41.000Z,6.43
2023-02-12T06:30:41.000Z,6.44
2023-02-12T06:31:41.000Z,6.47
2023-02-12T06:32:42.000Z,6.44
2023-02-12T06:33:42.000Z,6.47
2023-02-12T06:34:42.000Z,6.47
2023-02-12T06:35:42.000Z,6.44
2023-02-12T06:36:42.000Z,6.43
2023-02-12T06:37:42.000Z,6.44
2023-02-12T06:38:42.000Z,6.44
2023-02-12T06:39:42.000Z,6.43
2023-02-12T06:40:42.000Z,6.46
2023-02-12T06:41:42.000Z,6.43
2023-02-12T06:42:42.000Z,6.46
2023-02-12T06:43:42.000Z,6.47
2023-02-12T06:44:42.000Z,6.44
2023-02-12T06:45:42.000Z,6.47
2023-02-12T06:46:42.000Z,6.46
2023-02-12T06:47:42.000Z,6.43
2023-02-12T06:48:42.000Z,6.44
2023-02-12T06:49:42.000Z,6.46
2023-02-12T06:50:42.000Z,6.48
2023-02-12T06:51:42.000Z,6.47
2023-02-12T06:52:42.000Z,6.48
2023-02-12T06:53:42.000Z,6.48
2023-02-12T06:54:42.000Z,6.47
2023-02-12T06:55:42.000Z,6.46
2023-02-12T06:56:42.000Z,6.47
2023-02-12T06:57:42.000Z,6.46
2023-02-12T06:58:42.000Z,6.48
2023-02-12T06:59:42.000Z,6.48
2023-02-12T07:00:42.000Z,6.46
2023-02-12T07:01:42.000Z,6.48
2023-02-12T07:02:42.000Z,6.46
2023-02-12T07:03:42.000Z,6.48
2023-02-12T07:04:42.000Z,6.43
2023-02-12T07:05:42.000Z,6.48
2023-02-12T07:06:42.000Z,6.47
2023-02-12T07:07:42.000Z,6.46
2023-02-12T07:08:42.000Z,6.51
2023-02-12T07:09:42.000Z,6.47
2023-02-12T07:10:42.000Z,6.48
2023-02-12T07:11:42.000Z,6.51
2023-02-12T07:12:42.000Z,6.50
2023-02-12T07:13:42.000Z,6.53
2023-02-12T07:14:42.000Z,6.53
2023-02-12T07:15:42.000Z,6.51
2023-02-12T07:16:42.000Z,6.53
2023-02-12T07:17:42.000Z,6.56
2023-02-12T07:18:42.000Z,6.58
2023-02-12T07:19:42.000Z,6.56
2023-02-12T07:20:42.000Z,6.61
2023-02-12T07:21:42.000Z,6.62
2023-02-12T07:22:42.000Z,6.59
2023-02-12T07:23:42.000Z,6.65
2023-02-12T07:24:42.000Z,6.65
2023-02-12T07:25:42.000Z,6.68
2023-02-12T07:26:42.000Z,6.68
2023-02-12T07:27:42.000Z,6.63
2023-02-12T07:28:42.000Z,6.65
2023-02-12T07:29:42.000Z,6.69
2023-02-12T07:30:42.000Z,6.66
2023-02-12T07:31:42.000Z,6.68
2023-02-12T07:32:42.000Z,6.69
2023-02-12T07:33:42.000Z,6.71
2023-02-12T07:34:42.000Z,6.71
2023-02-12T07:35:42.000Z,6.71
2023-02-12T07:36:42.000Z,6.72
2023-02-12T07:37:42.000Z,6.71
2023-02-12T07:38:42.000Z,6.71
2023-02-12T07:39:42.000Z,6.72
2023-02-12T07:40:42.000Z,6.73
2023-02-12T07:41:42.000Z,6.71
2023-02-12T07:42:42.000Z,6.71
2023-02-12T07:43:42.000Z,6.72
2023-02-12T07:44:42.000Z,6.69
2023-02-12T07:45:42.000Z,6.66
2023-02-12T07:46:42.000Z,6.66
2023-02-12T07:47:42.000Z,6.66
2023-02-12T07:48:42.000Z,6.68
2023-02-12T07:49:42.000Z,6.65
2023-02-12T07:50:42.000Z,6.63
2023-02-12T07:51:42.000Z,6.63
2023-02-12T07:52:42.000Z,6.65
2023-02-12T07:53:42.000Z,6.63
2023-02-12T07:54:42.000Z,6.69
2023-02-12T07:55:42.000Z,6.62
2023-02-12T07:56:42.000Z,6.63
2023-02-12T07:57:42.000Z,6.62
2023-02-12T07:58:42.000Z,6.66
2023-02-12T07:59:42.000Z,6.61
2023-02-12T08:00:42.000Z,6.65
2023-02-12T08:01:42.000Z,6.66
2023-02-12T08:02:42.000Z,6.63
2023-02-12T08:03:42.000Z,6.61
2023-02-12T08:04:42.000Z,6.68
2023-02-12T08:05:42.000Z,6.65
2023-02-12T08:06:42.000Z,6.69
2023-02-12T08:07:42.000Z,6.72
2023-02-12T08:08:42.000Z,6.71
2023-02-12T08:09:42.000Z,6.71
2023-02-12T08:10:42.000Z,6.69
2023-02-12T08:11:42.000Z,6.68
2023-02-12T08:12:42.000Z,6.71
2023-02-12T08:13:42.000Z,6.71
2023-02-12T08:14:42.000Z,6.72
2023-02-12T08:15:42.000Z,6.68
2023-02-12T08:16:42.000Z,6.69
2023-02-12T08:17:43.000Z,6.72
2023-02-12T08:18:43.000Z,6.72
2023-02-12T08:19:43.000Z,6.71
2023-02-12T08:20:43.000Z,6.73
2023-02-12T08:21:43.000Z,6.71
2023-02-12T08:22:43.000Z,6.72
2023-02-12T08:23:43.000Z,6.79
2023-02-12T08:24:43.000Z,6.76
2023-02-12T08:25:43.000Z,6.76
2023-02-12T08:26:43.000Z,6.73
2023-02-12T08:27:43.000Z,6.77
2023-02-12T08:28:43.000Z,6.79
2023-02-12T08:29:43.000Z,6.79
2023-02-12T08:30:43.000Z,6.81
2023-02-12T08:31:43.000Z,6.81
2023-02-12T08:32:43.000Z,6.81
2023-02-12T08:33:43.000Z,6.83
2023-02-12T08:34:43.000Z,6.90
2023-02-12T08:35:43.000Z,6.84
2023-02-12T08:36:43.000Z,6.89
2023-02-12T08:37:43.000Z,6.89
2023-02-12T08:38:43.000Z,6.89
2023-02-12T08:39:43.000Z,6.90
2023-02-12T08:40:43.000Z,6.89
2023-02-12T08:41:43.000Z,6.90
2023-02-12T08:42:43.000Z,6.89
2023-02-12T08:43:43.000Z,6.95
2023-02-12T08:44:43.000Z,6.90
2023-02-12T08:45:43.000Z,6.98
2023-02-12T08:46:43.000Z,7.02
2023-02-12T08:47:43.000Z,7.04
2023-02-12T08:48:43.000Z,7.08
2023-02-12T08:49:43.000Z,7.07
2023-02-12T08:50:43.000Z,7.08
2023-02-12T08:51:43.000Z,7.12
2023-02-12T08:52:43.000Z,7.13
2023-02-12T08:53:43.000Z,7.16
2023-02-12T08:54:43.000Z,7.09
2023-02-12T08:55:43.000Z,7.09
2023-02-12T08:56:43.000Z,7.12
2023-02-12T08:57:43.000Z,7.12
2023-02-12T08:58:43.000Z,7.16
2023-02-12T08:59:43.000Z,7.09
2023-02-12T09:00:43.000Z,7.15
2023-02-12T09:01:43.000Z,7.19
2023-02-12T09:02:43.000Z,7.20
2023-02-12T09:03:43.000Z,7.17
2023-02-12T09:04:43.000Z,7.23
2023-02-12T09:05:43.000Z,7.22
2023-02-12T09:06:43.000Z,7.24
2023-02-12T09:07:43.000Z,7.26
2023-02-12T09:08:43.000Z,7.24
2023-02-12T09:09:43.000Z,7.27
2023-02-12T09:10:43.000Z,7.29
2023-02-12T09:11:43.000Z,7.26
2023-02-12T09:12:43.000Z,7.27
2023-02-12T09:13:43.000Z,7.35
2023-02-12T09:14:43.000Z,7.29
2023-02-12T09:15:43.000Z,7.31
2023-02-12T09:16:43.000Z,7.29
2023-02-12T09:17:43.000Z,7.29
2023-02-12T09:18:43.000Z,7.31
2023-02-12T09:19:43.000Z,7.34
2023-02-12T09:20:43.000Z,7.32
2023-02-12T09:21:43.000Z,7.35
2023-02-12T09:22:43.000Z,7.38
2023-02-12T09:23:43.000Z,7.35
2023-02-12T09:24:43.000Z,7.37
2023-02-12T09:25:43.000Z,7.29
2023-02-12T09:26:43.000Z,7.26
2023-02-12T09:27:43.000Z,7.27
2023-02-12T09:28:43.000Z,7.26
2023-02-12T09:29:43.000Z,7.29
2023-02-12T09:30:43.000Z,7.31
2023-02-12T09:31:43.000Z,7.31
2023-02-12T09:32:43.000Z,7.32
2023-02-12T09:33:43.000Z,7.29
2023-02-12T09:34:43.000Z,7.29
2023-02-12T09:35:43.000Z,7.32
2023-02-12T09:36:43.000Z,7.37
2023-02-12T09:37:43.000Z,7.32
2023-02-12T09:38:43.000Z,7.27
2023-02-12T09:39:43.000Z,7.32
2023-02-12T09:40:43.000Z,7.29
2023-02-12T09:41:43.000Z,7.35
2023-02-12T09:42:43.000Z,7.32
2023-02-12T09:43:43.000Z,7.35
2023-02-12T09:44:43.000Z,7.35
2023-02-12T09:45:43.000Z,7.37
2023-02-12T09:46:43.000Z,7.34
2023-02-12T09:47:43.000Z,7.32
2023-02-12T09:48:43.000Z,7.34
2023-02-12T09:49:43.000Z,7.37
2023-02-12T09:50:43.000Z,7.29
2023-02-12T09:51:43.000Z,7.29
2023-02-12T09:52:43.000Z,7.32
2023-02-12T09:53:43.000Z,7.38
2023-02-12T09:54:43.000Z,7.37
2023-02-12T09:55:43.000Z,7.40
2023-02-12T09:56:43.000Z,7.34
2023-02-12T09:57:43.000Z,7.38
2023-02-12T09:58:43.000Z,7.38
2023-02-12T09:59:43.000Z,7.35
2023-02-12T10:00:43.000Z,7.41
2023-02-12T10:01:43.000Z,7.44
2023-02-12T10:02:43.000Z,7.44
2023-02-12T10:03:43.000Z,7.41
2023-02-12T10:04:43.000Z,7.41
2023-02-12T10:05:43.000Z,7.42
2023-02-12T10:06:43.000Z,7.44
2023-02-12T10:07:43.000Z,7.41
2023-02-12T10:08:43.000Z,7.44
2023-02-12T10:09:43.000Z,7.49
2023-02-12T10:10:43.000Z,7.47
2023-02-12T10:11:43.000Z,7.47
2023-02-12T10:12:43.000Z,7.47
2023-02-12T10:13:43.000Z,7.52
2023-02-12T10:14:43.000Z,7.58
2023-02-12T10:15:43.000Z,7.55
2023-02-12T10:16:43.000Z,7.60
2023-02-12T10:17:43.000Z,7.62
2023-02-12T10:18:43.000Z,7.69
2023-02-12T10:19:43.000Z,7.67
2023-02-12T10:20:43.000Z,7.66
2023-02-12T10:21:43.000Z,7.63
2023-02-12T10:22:43.000Z,7.63
2023-02-12T10:23:43.000Z,7.66
2023-02-12T10:24:43.000Z,7.63
2023-02-12T10:25:43.000Z,7.62
2023-02-12T10:26:43.000Z,7.63
2023-02-12T10:27:43.000Z,7.59
2023-02-12T10:28:43.000Z,7.59
2023-02-12T10:29:43.000Z,7.63
2023-02-12T10:30:43.000Z,7.59
2023-02-12T10:31:43.000Z,7.59
2023-02-12T10:32:43.000Z,7.59
2023-02-12T10:33:43.000Z,7.60
2023-02-12T10:34:43.000Z,7.63
2023-02-12T10:35:43.000Z,7.62
2023-02-12T10:36:43.000Z,7.62
2023-02-12T10:37:43.000Z,7.62
2023-02-12T10:38:43.000Z,7.62
2023-02-12T10:39:43.000Z,7.63
2023-02-12T10:40:43.000Z,7.59
2023-02-12T10:41:43.000Z,7.63
2023-02-12T10:42:43.000Z,7.62
2023-02-12T10:43:43.000Z,7.60
2023-02-12T10:44:43.000Z,7.60
2023-02-12T10:45:43.000Z,7.67
2023-02-12T10:46:43.000Z,7.66
2023-02-12T10:47:43.000Z,7.72
2023-02-12T10:48:43.000Z,7.72
2023-02-12T10:49:43.000Z,7.78
2023-02-12T10:50:43.000Z,7.81
2023-02-12T10:51:43.000Z,7.89
2023-02-12T10:52:43.000Z,7.94
2023-02-12T10:53:43.000Z,8.00
2023-02-12T10:54:43.000Z,8.10
2023-02-12T10:55:43.000Z,8.08
2023-02-12T10:56:43.000Z,8.10
2023-02-12T10:57:43.000Z,8.03
2023-02-12T10:58:43.000Z,8.10
2023-02-12T10:59:43.000Z,8.10
2023-02-12T11:00:43.000Z,8.07
2023-02-12T11:01:43.000Z,8.08
2023-02-12T11:02:43.000Z,8.04
2023-02-12T11:03:43.000Z,8.04
2023-02-12T11:04:43.000Z,8.03
2023-02-12T11:05:43.000Z,8.07
2023-02-12T11:06:43.000Z,8.08
2023-02-12T11:07:43.000Z,8.14
2023-02-12T11:08:43.000Z,8.11
2023-02-12T11:09:43.000Z,8.12
2023-02-12T11:10:43.000Z,8.12
2023-02-12T11:11:43.000Z,8.15
2023-02-12T11:12:43.000Z,8.14
2023-02-12T11:13:43.000Z,8.12
2023-02-12T11:14:43.000Z,8.15
2023-02-12T11:15:43.000Z,8.12
2023-02-12T11:16:43.000Z,8.15
2023-02-12T11:17:43.000Z,8.20
2023-02-12T11:18:43.000Z,8.21
2023-02-12T11:19:43.000Z,8.26
2023-02-12T11:20:43.000Z,8.22
2023-02-12T11:21:43.000Z,8.21
2023-02-12T11:22:43.000Z,8.26
2023-02-12T11:23:43.000Z,8.28
2023-02-12T11:24:43.000Z,8.22
2023-02-12T11:25:43.000Z,8.18
2023-02-12T11:26:43.000Z,8.20
2023-02-12T11:27:43.000Z,8.15
2023-02-12T11:28:43.000Z,8.11
2023-02-12T11:29:43.000Z,8.07
2023-02-12T11:30:43.000Z,8.04
2023-02-12T11:31:43.000Z,8.00
2023-02-12T11:32:43.000Z,8.00
2023-02-12T11:33:43.000Z,7.93
2023-02-12T11:34:43.000Z,7.93
2023-02-12T11:35:43.000Z,7.96
2023-02-12T11:36:43.000Z,7.99
2023-02-12T11:37:43.000Z,7.97
2023-02-12T11:38:43.000Z,8.02
2023-02-12T11:39:43.000Z,8.03
2023-02-12T11:40:43.000Z,8.04
2023-02-12T11:41:43.000Z,8.04
2023-02-12T11:42:43.000Z,8.07
2023-02-12T11:43:43.000Z,8.08
2023-02-12T11:44:43.000Z,8.11
2023-02-12T11:45:43.000Z,8.12
2023-02-12T11:46:43.000Z,8.00
2023-02-12T11:47:43.000Z,7.99
2023-02-12T11:48:43.000Z,8.03
2023-02-12T11:49:43.000Z,8.02
2023-02-12T11:50:43.000Z,8.02
2023-02-12T11:51:43.000Z,8.02
2023-02-12T11:52:43.000Z,8.03
2023-02-12T11:53:43.000Z,8.04
2023-02-12T11:54:43.000Z,8.02
2023-02-12T11:55:43.000Z,7.97
2023-02-12T11:56:43.000Z,7.94
2023-02-12T11:57:43.000Z,7.96
2023-02-12T11:58:43.000Z,7.90
2023-02-12T11:59:43.000Z,7.90
2023-02-12T12:00:43.000Z,7.92
2023-02-12T12:01:43.000Z,7.90
2023-02-12T12:02:43.000Z,7.90
2023-02-12T12:03:43.000Z,7.96
2023-02-12T12:04:43.000Z,7.94
2023-02-12T12:05:43.000Z,7.94
2023-02-12T12:06:43.000Z,7.92
2023-02-12T12:07:43.000Z,7.93
2023-02-12T12:08:43.000Z,7.93
2023-02-12T12:09:43.000Z,7.94
2023-02-12T12:10:43.000Z,7.94
2023-02-12T12:11:43.000Z,7.96
2023-02-12T12:12:43.000Z,8.03
2023-02-12T12:13:43.000Z,7.99
2023-02-12T12:14:43.000Z,7.99
2023-02-12T12:15:43.000Z,7.99
2023-02-12T12:16:43.000Z,7.99
2023-02-12T12:17:43.000Z,8.00
2023-02-12T12:18:43.000Z,7.99
2023-02-12T12:19:43.000Z,8.04
2023-02-12T12:20:43.000Z,8.10
2023-02-12T12:21:43.000Z,8.10
2023-02-12T12:22:43.000Z,8.10
2023-02-12T12:23:43.000Z,8.08
2023-02-12T12:24:43.000Z,8.10
2023-02-12T12:25:43.000Z,8.08
2023-02-12T12:26:43.000Z,8.12
2023-02-12T12:27:43.000Z,8.07
2023-02-12T12:28:43.000Z,8.10
2023-02-12T12:29:43.000Z,8.10
2023-02-12T12:30:43.000Z,8.08
2023-02-12T12:31:43.000Z,8.04
2023-02-12T12:32:43.000Z,8.02
2023-02-12T12:33:43.000Z,8.00
2023-02-12T12:34:43.000Z,7.94
2023-02-12T12:35:43.000Z,7.97
2023-02-12T12:36:43.000Z,7.93
2023-02-12T12:37:43.000Z,7.92
2023-02-12T12:38:43.000Z,7.92
2023-02-12T12:39:43.000Z,7.92
2023-02-12T12:40:43.000Z,7.97
2023-02-12T12:41:43.000Z,7.89
2023-02-12T12:42:43.000Z,7.92
2023-02-12T12:43:43.000Z,7.94
2023-02-12T12:44:43.000Z,7.92
2023-02-12T12:45:43.000Z,7.93
2023-02-12T12:46:43.000Z,7.92
2023-02-12T12:47:43.000Z,7.89
2023-02-12T12:48:43.000Z,7.90
2023-02-12T12:49:43.000Z,7.90
2023-02-12T12:50:43.000Z,7.96
2023-02-12T12:51:43.000Z,7.94
2023-02-12T12:52:43.000Z,7.93
2023-02-12T12:53:43.000Z,7.87
2023-02-12T12:54:43.000Z,7.87
2023-02-12T12:55:43.000Z,7.89
2023-02-12T12:56:43.000Z,7.89
2023-02-12T12:57:43.000Z,7.92
2023-02-12T12:58:43.000Z,7.90
2023-02-12T12:59:43.000Z,7.90
2023-02-12T13:00:43.000Z,7.87
2023-02-12T13:01:43.000Z,7.82
2023-02-12T13:02:43.000Z,7.85
2023-02-12T13:03:43.000Z,7.82
2023-02-12T13:04:43.000Z,7.79
2023-02-12T13:05:43.000Z,7.84
2023-02-12T13:06:43.000Z,7.82
2023-02-12T13:07:43.000Z,7.82
2023-02-12T13:08:43.000Z,7.85
2023-02-12T13:09:43.000Z,7.79
2023-02-12T13:10:43.000Z,7.84
2023-02-12T13:11:43.000Z,7.79
2023-02-12T13:12:43.000Z,7.85
2023-02-12T13:13:43.000Z,7.81